Time;durP1;ratioP1;P1;durP2;ratioP2;P2;SDS_P1;SDS_P2;PMS_P1;PMS_P2;Temp;Humidity;BMP_temperature;BMP_pressure;BME280_temperature;BME280_humidity;BME280_pressure;Samples;Min_cycle;Max_cycle;Signal;HPM_P1;HPM_P2
2023/08/18 00:00:46;;;;;;;7.03;1.17;;;16.80;99.90;;;;;;5053472;28;20045;-87
2023/08/18 00:03:12;;;;;;;3.50;0.98;;;16.70;99.90;;;;;;5046885;28;20049;-86
2023/08/18 00:05:38;;;;;;;6.70;1.20;;;16.70;99.90;;;;;;5056322;28;20087;-87
2023/08/18 00:08:04;;;;;;;3.90;1.20;;;16.60;99.90;;;;;;5062506;28;20140;-87
2023/08/18 00:10:30;;;;;;;4.68;1.08;;;16.60;99.90;;;;;;5049781;28;20047;-87
2023/08/18 00:12:55;;;;;;;3.60;0.93;;;16.50;99.90;;;;;;5030285;28;20045;-87
2023/08/18 00:15:21;;;;;;;4.53;1.17;;;16.50;99.90;;;;;;5035954;28;20052;-87
2023/08/18 00:17:47;;;;;;;3.90;0.93;;;16.40;99.90;;;;;;5045011;28;20377;-87
2023/08/18 00:20:12;;;;;;;4.03;1.05;;;16.40;99.90;;;;;;5032686;28;20286;-87
2023/08/18 00:22:39;;;;;;;4.00;1.30;;;16.40;99.90;;;;;;5034195;28;20055;-86
2023/08/18 00:25:05;;;;;;;4.63;1.58;;;16.40;99.90;;;;;;5052817;28;20049;-87
2023/08/18 00:27:30;;;;;;;2.65;1.10;;;16.30;99.90;;;;;;5081408;28;20109;-87
2023/08/18 00:29:56;;;;;;;3.80;1.23;;;16.30;99.90;;;;;;5045976;28;20039;-87
2023/08/18 00:32:22;;;;;;;4.50;1.60;;;16.30;99.90;;;;;;5060892;28;20073;-87
2023/08/18 00:34:47;;;;;;;3.38;1.05;;;16.20;99.90;;;;;;5048659;28;20048;-86
2023/08/18 00:37:15;;;;;;;2.75;1.13;;;16.30;99.90;;;;;;5049336;28;20053;-88
2023/08/18 00:39:41;;;;;;;4.38;1.25;;;16.20;99.90;;;;;;5048419;28;20071;-87
2023/08/18 00:42:07;;;;;;;3.80;1.30;;;16.20;99.90;;;;;;5048769;28;20045;-88
2023/08/18 00:44:32;;;;;;;7.63;1.80;;;16.30;99.90;;;;;;5049307;28;20037;-87
2023/08/18 00:46:58;;;;;;;4.15;1.42;;;16.30;99.90;;;;;;5029112;28;20503;-87
2023/08/18 00:49:26;;;;;;;2.80;1.25;;;16.30;99.90;;;;;;5021634;28;20053;-87
2023/08/18 00:51:51;;;;;;;5.07;1.70;;;16.40;99.90;;;;;;5045226;28;20870;-86
2023/08/18 00:54:17;;;;;;;3.20;1.75;;;16.40;99.90;;;;;;5045912;28;20077;-88
2023/08/18 00:56:45;;;;;;;3.63;1.30;;;16.40;99.90;;;;;;5077311;28;20041;-87
2023/08/18 00:59:12;;;;;;;3.97;1.40;;;16.50;99.90;;;;;;5032138;28;20052;-87
2023/08/18 01:01:39;;;;;;;4.38;1.95;;;16.50;99.90;;;;;;5048476;28;20044;-87
2023/08/18 01:04:06;;;;;;;4.88;1.70;;;16.40;99.90;;;;;;5032713;28;20069;-87
2023/08/18 01:06:32;;;;;;;4.18;1.60;;;16.50;99.90;;;;;;5048855;28;20136;-87
2023/08/18 01:08:57;;;;;;;5.05;1.80;;;16.50;99.90;;;;;;5028315;28;20271;-87
2023/08/18 01:11:34;;;;;;;3.10;1.63;;;16.50;99.90;;;;;;5049609;28;20053;-87
2023/08/18 01:14:33;;;;;;;6.63;2.13;;;16.50;99.90;;;;;;5047966;28;20045;-87
2023/08/18 01:17:20;;;;;;;3.20;1.80;;;16.50;99.90;;;;;;5022385;28;20052;-88
2023/08/18 01:19:47;;;;;;;4.63;2.00;;;16.60;99.90;;;;;;5049412;28;20041;-88
2023/08/18 01:22:16;;;;;;;4.00;1.88;;;16.60;99.90;;;;;;5048413;28;20099;-87
2023/08/18 01:24:42;;;;;;;3.45;1.60;;;16.60;99.90;;;;;;5034646;28;20119;-88
2023/08/18 01:27:08;;;;;;;4.70;2.00;;;16.60;99.90;;;;;;5040992;28;20456;-88
2023/08/18 01:29:34;;;;;;;5.18;2.00;;;16.60;99.90;;;;;;5048129;28;20576;-87
2023/08/18 01:32:05;;;;;;;5.57;1.83;;;16.70;99.90;;;;;;5047815;28;20508;-87
2023/08/18 01:34:32;;;;;;;5.25;2.03;;;16.60;99.90;;;;;;5028742;28;20495;-87
2023/08/18 01:36:59;;;;;;;6.97;1.70;;;16.70;99.90;;;;;;5047270;28;20520;-87
2023/08/18 01:39:26;;;;;;;8.45;2.20;;;16.70;99.90;;;;;;5024665;28;20413;-87
2023/08/18 01:41:53;;;;;;;4.28;1.85;;;16.70;99.90;;;;;;5030611;28;20045;-86
2023/08/18 01:44:19;;;;;;;7.10;1.60;;;16.70;99.90;;;;;;5048263;28;20041;-87
2023/08/18 01:46:48;;;;;;;5.53;2.00;;;16.70;99.90;;;;;;5029643;28;20135;-88
2023/08/18 01:49:14;;;;;;;3.70;1.65;;;16.70;99.90;;;;;;5050438;28;20049;-86
2023/08/18 01:51:40;;;;;;;6.10;1.80;;;16.70;99.90;;;;;;5043029;28;20067;-88
2023/08/18 01:54:06;;;;;;;6.75;1.85;;;16.70;99.90;;;;;;5047967;28;20051;-87
2023/08/18 01:56:32;;;;;;;7.35;2.25;;;16.70;99.90;;;;;;5046248;28;20053;-87
2023/08/18 01:58:59;;;;;;;5.28;1.90;;;16.70;99.90;;;;;;5019646;28;20045;-87
2023/08/18 02:01:25;;;;;;;7.72;2.10;;;16.70;99.90;;;;;;5051339;28;20049;-87
2023/08/18 02:03:52;;;;;;;5.13;2.50;;;16.70;99.90;;;;;;5034790;28;20068;-87
2023/08/18 02:06:18;;;;;;;7.75;2.05;;;16.70;99.90;;;;;;5051884;28;20083;-87
2023/08/18 02:08:44;;;;;;;7.25;2.20;;;16.70;99.90;;;;;;5035299;28;20081;-87
2023/08/18 02:11:10;;;;;;;5.15;2.20;;;16.70;99.90;;;;;;5037335;28;20042;-87
2023/08/18 02:13:36;;;;;;;4.38;2.05;;;16.70;99.90;;;;;;5032045;28;20090;-87
2023/08/18 02:16:01;;;;;;;7.40;2.35;;;16.60;99.90;;;;;;5044953;28;20038;-88
2023/08/18 02:18:27;;;;;;;5.07;2.20;;;16.70;99.90;;;;;;5052066;28;20132;-87
2023/08/18 02:20:58;;;;;;;6.20;2.22;;;16.70;99.90;;;;;;5049243;28;20087;-87
2023/08/18 02:23:23;;;;;;;4.75;2.20;;;16.70;99.90;;;;;;5057794;28;20052;-87
2023/08/18 02:25:49;;;;;;;5.80;2.33;;;16.70;99.90;;;;;;5050984;28;20049;-87
2023/08/18 02:28:17;;;;;;;8.07;2.38;;;16.70;99.90;;;;;;5051696;28;20135;-88
2023/08/18 02:30:44;;;;;;;6.80;2.38;;;16.70;99.90;;;;;;5065051;28;20452;-87
2023/08/18 02:33:11;;;;;;;4.78;2.17;;;16.70;99.90;;;;;;5023323;28;20068;-87
2023/08/18 02:35:36;;;;;;;7.90;2.47;;;16.70;99.90;;;;;;5051097;28;20489;-87
2023/08/18 02:38:02;;;;;;;8.35;2.50;;;16.70;99.90;;;;;;5058761;28;20087;-87
2023/08/18 02:40:28;;;;;;;5.68;2.53;;;16.70;99.90;;;;;;5060641;28;20123;-86
2023/08/18 02:42:54;;;;;;;7.20;2.63;;;16.70;99.90;;;;;;5057145;28;20072;-87
2023/08/18 02:45:19;;;;;;;6.75;2.60;;;16.70;99.90;;;;;;5031413;28;20060;-88
2023/08/18 02:47:45;;;;;;;5.45;2.65;;;16.70;99.90;;;;;;5021876;28;20523;-87
2023/08/18 02:50:10;;;;;;;8.88;3.00;;;16.70;99.90;;;;;;5051185;28;20132;-86
2023/08/18 02:52:36;;;;;;;7.65;2.40;;;16.70;99.90;;;;;;5030811;28;20049;-87
2023/08/18 02:55:02;;;;;;;7.75;2.65;;;16.70;99.90;;;;;;5030914;28;20041;-87
2023/08/18 02:57:28;;;;;;;5.05;2.50;;;16.70;99.90;;;;;;5051241;28;20755;-87
2023/08/18 02:59:53;;;;;;;5.28;2.45;;;16.70;99.90;;;;;;5050613;28;20045;-88
2023/08/18 03:02:19;;;;;;;5.30;2.60;;;16.70;99.90;;;;;;5034897;28;20040;-86
2023/08/18 03:04:44;;;;;;;5.65;2.63;;;16.70;99.90;;;;;;5033950;28;20128;-88
2023/08/18 03:07:10;;;;;;;6.00;2.50;;;16.80;99.90;;;;;;5051480;28;20037;-88
2023/08/18 03:09:36;;;;;;;6.30;2.88;;;16.80;99.90;;;;;;5049507;28;20042;-88
2023/08/18 03:12:02;;;;;;;7.35;2.80;;;16.80;99.90;;;;;;5049426;28;20045;-87
2023/08/18 03:14:27;;;;;;;5.03;2.85;;;16.80;99.90;;;;;;5055323;28;20086;-88
2023/08/18 03:16:53;;;;;;;9.27;3.25;;;16.80;99.90;;;;;;5050038;28;20059;-88
2023/08/18 03:19:19;;;;;;;10.27;3.55;;;16.80;99.90;;;;;;5037852;28;20041;-88
2023/08/18 03:21:44;;;;;;;10.75;3.15;;;16.80;99.90;;;;;;5050598;28;20053;-88
2023/08/18 03:24:10;;;;;;;8.65;3.20;;;16.80;99.90;;;;;;5049009;28;20045;-88
2023/08/18 03:26:36;;;;;;;6.78;3.45;;;16.80;99.90;;;;;;5042469;28;20077;-87
2023/08/18 03:29:01;;;;;;;5.28;3.38;;;16.80;99.90;;;;;;5050365;28;20477;-87
2023/08/18 03:31:27;;;;;;;8.52;3.60;;;16.80;99.90;;;;;;5030122;28;20124;-87
2023/08/18 03:33:53;;;;;;;7.05;3.40;;;16.80;99.90;;;;;;5066622;28;20128;-88
2023/08/18 03:36:19;;;;;;;9.25;3.60;;;16.80;99.90;;;;;;5050412;28;20554;-87
2023/08/18 03:38:45;;;;;;;9.90;4.30;;;16.80;99.90;;;;;;5050497;28;20056;-88
2023/08/18 03:41:11;;;;;;;7.82;3.75;;;16.80;99.90;;;;;;5050333;28;20384;-88
2023/08/18 03:43:37;;;;;;;10.05;3.78;;;16.80;99.90;;;;;;5032976;28;20238;-88
2023/08/18 03:46:25;;;;;;;6.93;3.38;;;16.80;99.90;;;;;;5047097;28;20042;-88
2023/08/18 03:48:51;;;;;;;6.80;3.30;;;16.80;99.90;;;;;;5049541;28;20041;-87
2023/08/18 03:51:17;;;;;;;8.65;3.72;;;16.80;99.90;;;;;;5034065;28;20086;-89
2023/08/18 03:53:43;;;;;;;10.27;3.92;;;16.90;99.90;;;;;;5049358;28;20056;-88
2023/08/18 03:56:09;;;;;;;9.18;3.97;;;16.90;99.90;;;;;;5050843;28;20037;-87
2023/08/18 03:58:35;;;;;;;8.40;3.78;;;16.80;99.90;;;;;;5032940;28;20048;-87
2023/08/18 04:01:08;;;;;;;8.00;3.75;;;16.80;99.90;;;;;;5049031;28;20133;-88
2023/08/18 04:03:35;;;;;;;8.15;3.90;;;16.80;99.90;;;;;;5067250;28;20037;-88
2023/08/18 04:06:02;;;;;;;5.55;3.50;;;16.80;99.90;;;;;;5049788;28;20120;-88
2023/08/18 04:08:28;;;;;;;6.60;3.30;;;16.80;99.90;;;;;;5027567;28;20045;-87
2023/08/18 04:10:53;;;;;;;6.95;3.63;;;16.80;99.90;;;;;;5042404;28;20056;-88
2023/08/18 04:13:19;;;;;;;10.63;4.00;;;16.80;99.90;;;;;;5039360;28;20041;-88
2023/08/18 04:15:45;;;;;;;10.40;4.30;;;16.80;99.90;;;;;;5064352;28;20103;-88
2023/08/18 04:18:11;;;;;;;8.70;3.80;;;16.80;99.90;;;;;;5065895;28;20037;-88
2023/08/18 04:20:36;;;;;;;7.72;3.70;;;16.80;99.90;;;;;;5029789;28;20237;-88
2023/08/18 04:23:02;;;;;;;10.02;3.85;;;16.80;99.90;;;;;;5043066;28;20127;-87
2023/08/18 04:25:28;;;;;;;9.68;4.00;;;16.80;99.90;;;;;;5040439;28;20042;-87
2023/08/18 04:27:53;;;;;;;9.20;3.70;;;16.80;99.90;;;;;;5050322;28;20064;-86
2023/08/18 04:30:19;;;;;;;9.40;4.40;;;16.90;99.90;;;;;;5047005;28;20049;-88
2023/08/18 04:32:45;;;;;;;7.18;3.65;;;16.80;99.90;;;;;;5017968;28;20112;-88
2023/08/18 04:35:10;;;;;;;8.38;3.83;;;16.80;99.90;;;;;;5051937;28;20112;-87
2023/08/18 04:37:36;;;;;;;8.02;3.97;;;16.90;99.90;;;;;;5039272;28;20658;-88
2023/08/18 04:40:04;;;;;;;9.77;3.78;;;16.90;99.90;;;;;;5047607;28;20501;-89
2023/08/18 04:42:30;;;;;;;13.00;3.70;;;16.80;99.90;;;;;;5046582;28;20486;-88
2023/08/18 04:44:56;;;;;;;8.15;3.53;;;16.80;99.90;;;;;;5045331;28;20049;-89
2023/08/18 04:47:22;;;;;;;6.78;3.63;;;16.90;99.90;;;;;;5051407;28;20123;-88
2023/08/18 04:49:47;;;;;;;9.68;3.58;;;16.90;99.90;;;;;;5047045;28;20044;-88
2023/08/18 04:52:15;;;;;;;9.68;3.53;;;16.90;99.90;;;;;;5045885;28;20111;-87
2023/08/18 04:54:41;;;;;;;7.75;3.90;;;16.90;99.90;;;;;;5025600;28;20048;-88
2023/08/18 04:57:10;;;;;;;9.95;3.50;;;16.90;99.90;;;;;;5022113;28;20052;-89
2023/08/18 04:59:35;;;;;;;9.13;3.63;;;16.90;99.90;;;;;;5020761;28;20044;-89
2023/08/18 05:02:01;;;;;;;9.23;3.35;;;16.90;99.90;;;;;;5038124;28;20136;-89
2023/08/18 05:04:27;;;;;;;6.45;3.25;;;16.90;99.90;;;;;;5032926;28;20076;-89
2023/08/18 05:06:52;;;;;;;9.57;3.38;;;17.00;99.90;;;;;;5045832;28;20045;-88
2023/08/18 05:09:18;;;;;;;10.45;3.38;;;17.00;99.90;;;;;;5026633;28;20140;-88
2023/08/18 05:11:44;;;;;;;8.55;3.40;;;16.90;99.90;;;;;;5045758;28;20473;-89
2023/08/18 05:14:09;;;;;;;8.75;3.50;;;16.90;99.90;;;;;;5059147;28;20040;-89
2023/08/18 05:16:35;;;;;;;9.88;3.28;;;17.00;99.90;;;;;;5048098;28;20110;-88
2023/08/18 05:19:01;;;;;;;8.13;3.13;;;17.00;99.90;;;;;;5053397;28;20659;-87
2023/08/18 05:21:31;;;;;;;12.43;3.30;;;17.00;99.90;;;;;;5059171;28;20497;-88
2023/08/18 05:23:57;;;;;;;6.90;3.35;;;17.00;99.90;;;;;;5023391;28;20120;-88
2023/08/18 05:26:22;;;;;;;11.48;3.70;;;17.00;99.90;;;;;;5032676;28;20075;-88
2023/08/18 05:28:49;;;;;;;8.35;3.10;;;17.00;99.90;;;;;;5048213;28;20041;-88
2023/08/18 05:31:15;;;;;;;9.02;3.28;;;17.00;99.90;;;;;;5058407;28;20449;-88
2023/08/18 05:33:41;;;;;;;8.55;3.45;;;17.00;99.90;;;;;;5045546;28;20148;-88
2023/08/18 05:36:07;;;;;;;6.43;3.60;;;17.10;99.90;;;;;;5061634;28;20045;-88
2023/08/18 05:38:33;;;;;;;7.88;3.30;;;17.10;99.90;;;;;;5075788;28;20037;-88
2023/08/18 05:41:12;;;;;;;11.02;3.33;;;17.10;99.90;;;;;;5044962;28;20041;-89
2023/08/18 05:43:39;;;;;;;9.73;3.30;;;17.10;99.90;;;;;;5026251;28;20040;-89
2023/08/18 05:46:05;;;;;;;7.30;3.40;;;17.10;99.90;;;;;;5038344;28;20381;-88
2023/08/18 05:48:34;;;;;;;8.77;3.20;;;17.10;99.90;;;;;;5046319;28;20127;-88
2023/08/18 05:51:01;;;;;;;9.38;3.28;;;17.10;99.90;;;;;;5054599;28;20487;-88
2023/08/18 05:53:26;;;;;;;10.95;3.15;;;17.10;99.90;;;;;;5064810;28;20045;-88
2023/08/18 05:55:52;;;;;;;7.25;2.97;;;17.20;99.90;;;;;;5048282;28;20067;-88
2023/08/18 05:58:18;;;;;;;9.90;3.30;;;17.20;99.90;;;;;;5019222;28;20151;-88
2023/08/18 06:00:49;;;;;;;7.25;3.47;;;17.20;99.90;;;;;;5061041;28;20515;-89
2023/08/18 06:03:19;;;;;;;12.70;3.47;;;17.20;99.90;;;;;;5046028;28;20069;-88
2023/08/18 06:05:48;;;;;;;10.38;3.47;;;17.20;99.90;;;;;;5038557;28;20055;-87
2023/08/18 06:08:14;;;;;;;12.57;3.97;;;17.20;99.90;;;;;;5028982;28;20115;-89
2023/08/18 06:10:41;;;;;;;20.45;4.15;;;17.20;99.90;;;;;;5038997;28;20041;-90
2023/08/18 06:13:07;;;;;;;8.43;3.15;;;17.20;99.90;;;;;;5032472;28;20068;-89
2023/08/18 06:15:32;;;;;;;11.77;3.45;;;17.30;99.90;;;;;;5048508;28;20557;-89
2023/08/18 06:17:58;;;;;;;10.57;3.35;;;17.30;99.90;;;;;;5029469;28;20053;-88
2023/08/18 06:20:24;;;;;;;10.38;3.88;;;17.40;99.90;;;;;;5029688;28;20049;-88
2023/08/18 06:22:49;;;;;;;12.13;4.03;;;17.40;99.90;;;;;;5042712;28;20153;-88
2023/08/18 06:25:15;;;;;;;10.07;3.92;;;17.40;99.90;;;;;;5057131;28;20048;-88
2023/08/18 06:27:41;;;;;;;8.45;3.45;;;17.40;99.90;;;;;;5047543;28;20045;-88
2023/08/18 06:30:07;;;;;;;10.60;4.10;;;17.50;99.90;;;;;;5046860;28;20060;-87
2023/08/18 06:32:33;;;;;;;8.00;4.13;;;17.50;99.90;;;;;;5059423;28;20060;-87
2023/08/18 06:34:59;;;;;;;13.88;4.20;;;17.50;99.90;;;;;;5073165;28;20048;-88
2023/08/18 06:37:25;;;;;;;11.65;4.28;;;17.50;99.90;;;;;;5044164;28;20062;-87
2023/08/18 06:39:51;;;;;;;13.65;4.35;;;17.50;99.90;;;;;;5047067;28;20037;-88
2023/08/18 06:42:17;;;;;;;11.70;4.60;;;17.50;99.90;;;;;;5047522;28;20090;-87
2023/08/18 06:44:42;;;;;;;12.13;4.00;;;17.60;99.90;;;;;;5047660;28;20041;-88
2023/08/18 06:47:08;;;;;;;10.57;4.20;;;17.60;99.90;;;;;;5030252;28;20049;-88
2023/08/18 06:49:34;;;;;;;12.07;4.13;;;17.60;99.90;;;;;;5061962;28;20154;-88
2023/08/18 06:51:59;;;;;;;11.75;4.43;;;17.70;99.90;;;;;;5045155;28;20052;-88
2023/08/18 06:54:25;;;;;;;11.90;4.45;;;17.70;99.90;;;;;;5030164;28;20100;-88
2023/08/18 06:56:54;;;;;;;10.13;4.57;;;17.70;99.90;;;;;;5030178;28;20370;-89
2023/08/18 06:59:20;;;;;;;11.60;4.50;;;17.70;99.90;;;;;;5061555;28;20080;-88
2023/08/18 07:01:45;;;;;;;12.63;4.70;;;17.70;99.90;;;;;;5033833;28;20072;-88
2023/08/18 07:04:12;;;;;;;12.80;4.53;;;17.70;99.90;;;;;;5025991;28;20128;-89
2023/08/18 07:06:42;;;;;;;10.93;4.60;;;17.80;99.90;;;;;;5040051;28;20211;-87
2023/08/18 07:09:09;;;;;;;14.02;5.03;;;17.80;99.90;;;;;;5058853;28;20040;-89
2023/08/18 07:11:35;;;;;;;13.85;5.20;;;17.80;99.90;;;;;;5037774;28;20691;-86
2023/08/18 07:14:03;;;;;;;12.05;4.85;;;17.80;99.90;;;;;;5065808;28;20041;-85
2023/08/18 07:16:31;;;;;;;12.82;5.38;;;17.80;99.90;;;;;;5042882;28;20038;-86
2023/08/18 07:18:57;;;;;;;13.77;5.22;;;17.90;99.90;;;;;;5025534;28;20450;-86
2023/08/18 07:21:23;;;;;;;13.40;5.60;;;17.90;99.90;;;;;;5042600;28;20041;-86
2023/08/18 07:23:49;;;;;;;16.40;5.57;;;18.00;99.90;;;;;;5040960;28;20053;-86
2023/08/18 07:26:16;;;;;;;13.18;5.95;;;18.00;99.90;;;;;;5017686;28;20115;-86
2023/08/18 07:28:42;;;;;;;12.00;4.95;;;18.00;99.90;;;;;;5066922;28;20046;-85
2023/08/18 07:31:08;;;;;;;12.77;5.78;;;18.00;99.90;;;;;;5062102;28;20045;-86
2023/08/18 07:33:34;;;;;;;17.02;6.22;;;18.10;99.90;;;;;;5051186;28;20143;-87
2023/08/18 07:36:00;;;;;;;14.98;6.05;;;18.10;99.90;;;;;;5049327;28;20044;-86
2023/08/18 07:38:26;;;;;;;14.10;6.53;;;18.10;99.90;;;;;;5033580;28;20048;-88
2023/08/18 07:40:52;;;;;;;14.48;6.15;;;18.10;99.90;;;;;;5049634;28;20558;-87
2023/08/18 07:43:18;;;;;;;11.27;6.35;;;18.10;99.90;;;;;;5034536;28;20125;-90
2023/08/18 07:45:45;;;;;;;12.00;5.93;;;18.10;99.90;;;;;;5033336;28;20107;-87
2023/08/18 07:48:12;;;;;;;14.48;7.72;;;18.10;99.90;;;;;;5049987;28;20472;-87
2023/08/18 07:50:40;;;;;;;14.90;7.63;;;18.20;99.90;;;;;;5059003;28;20547;-89
2023/08/18 07:53:06;;;;;;;13.10;6.70;;;18.20;99.90;;;;;;5041434;28;20045;-89
2023/08/18 07:55:31;;;;;;;15.50;7.47;;;18.20;99.90;;;;;;5045387;28;20070;-90
2023/08/18 07:57:57;;;;;;;16.48;7.10;;;18.30;99.90;;;;;;5044919;28;20106;-89
2023/08/18 08:00:23;;;;;;;14.98;6.50;;;18.30;99.90;;;;;;5031483;28;20048;-89
2023/08/18 08:02:49;;;;;;;15.80;6.25;;;18.40;99.90;;;;;;5042477;28;20171;-89
2023/08/18 08:05:22;;;;;;;16.30;5.97;;;18.40;99.90;;;;;;5044550;28;20124;-89
2023/08/18 08:07:48;;;;;;;13.60;5.45;;;18.50;99.90;;;;;;5059746;28;20037;-89
2023/08/18 08:10:14;;;;;;;16.73;6.00;;;18.50;99.90;;;;;;5066561;28;20131;-90
2023/08/18 08:12:41;;;;;;;17.20;5.50;;;18.60;99.90;;;;;;5048925;28;20051;-87
2023/08/18 08:15:08;;;;;;;11.27;5.35;;;18.70;99.90;;;;;;5050160;28;20055;-91
2023/08/18 08:17:34;;;;;;;14.65;5.13;;;18.80;99.90;;;;;;5048913;28;20058;-90
2023/08/18 08:20:05;;;;;;;13.43;4.72;;;18.90;99.90;;;;;;5049303;28;20041;-89
2023/08/18 08:22:31;;;;;;;13.05;5.10;;;18.90;99.90;;;;;;5047854;28;20040;-90
2023/08/18 08:24:57;;;;;;;11.15;4.75;;;18.90;99.90;;;;;;5047336;28;20339;-89
2023/08/18 08:27:23;;;;;;;14.68;5.55;;;19.00;99.90;;;;;;5064503;28;20055;-90
2023/08/18 08:29:49;;;;;;;12.38;5.00;;;19.20;99.90;;;;;;5049759;28;20040;-89
2023/08/18 08:32:14;;;;;;;13.05;4.68;;;19.30;99.90;;;;;;5031468;28;20071;-90
2023/08/18 08:34:48;;;;;;;11.48;4.10;;;19.40;99.90;;;;;;5021976;28;20055;-88
2023/08/18 08:37:15;;;;;;;12.70;4.35;;;19.40;99.90;;;;;;5030932;28;20467;-88
2023/08/18 08:39:41;;;;;;;7.05;3.53;;;19.50;99.90;;;;;;5038531;28;20045;-88
2023/08/18 08:42:08;;;;;;;7.85;4.32;;;19.50;99.90;;;;;;5045548;28;20045;-89
2023/08/18 08:44:33;;;;;;;11.25;4.25;;;19.50;99.90;;;;;;5046486;28;20048;-89
2023/08/18 08:47:02;;;;;;;14.18;5.32;;;19.60;99.90;;;;;;5028296;28;20053;-87
2023/08/18 08:49:30;;;;;;;13.93;4.65;;;19.60;99.90;;;;;;5066496;28;20079;-88
2023/08/18 08:52:01;;;;;;;10.90;4.15;;;19.60;99.90;;;;;;5031495;28;20033;-88
2023/08/18 08:54:30;;;;;;;10.27;4.25;;;19.70;99.90;;;;;;5024438;28;20036;-87
2023/08/18 08:56:57;;;;;;;10.05;4.60;;;19.80;99.90;;;;;;5035814;28;20120;-88
2023/08/18 08:59:24;;;;;;;10.70;4.50;;;19.90;99.90;;;;;;5051606;28;20076;-87
2023/08/18 09:01:52;;;;;;;8.43;3.70;;;20.00;99.90;;;;;;5025612;28;20038;-88
2023/08/18 09:04:19;;;;;;;8.88;4.10;;;20.10;99.90;;;;;;5030938;28;20485;-89
2023/08/18 09:06:46;;;;;;;7.70;3.40;;;20.10;99.90;;;;;;5019680;28;20144;-89
2023/08/18 09:09:14;;;;;;;9.13;3.72;;;20.10;99.90;;;;;;5067997;28;20416;-88
2023/08/18 09:11:46;;;;;;;7.65;3.90;;;20.00;99.90;;;;;;5047928;28;20072;-87
2023/08/18 09:14:16;;;;;;;11.83;3.77;;;20.10;99.90;;;;;;5049155;28;20049;-88
2023/08/18 09:16:44;;;;;;;8.30;3.55;;;20.10;99.90;;;;;;5080322;28;20807;-88
2023/08/18 09:19:14;;;;;;;9.75;4.30;;;20.20;99.90;;;;;;5031692;28;20060;-89
2023/08/18 09:21:40;;;;;;;10.43;3.63;;;20.30;99.90;;;;;;5035913;28;20052;-87
2023/08/18 09:24:07;;;;;;;9.93;3.13;;;20.40;99.90;;;;;;5046850;28;20121;-88
2023/08/18 09:26:33;;;;;;;7.80;3.40;;;20.40;99.90;;;;;;5037718;28;20119;-88
2023/08/18 09:28:59;;;;;;;7.50;3.17;;;20.40;99.90;;;;;;5018954;28;20045;-88
2023/08/18 09:31:24;;;;;;;9.82;3.58;;;20.50;99.90;;;;;;5030096;28;20060;-88
2023/08/18 09:33:51;;;;;;;7.63;3.10;;;20.50;99.90;;;;;;5051798;28;20049;-88
2023/08/18 09:36:18;;;;;;;8.13;3.50;;;20.50;99.90;;;;;;5049150;28;20473;-89
2023/08/18 09:38:44;;;;;;;9.82;3.30;;;20.40;99.90;;;;;;5026900;28;20047;-88
2023/08/18 09:41:12;;;;;;;5.28;3.03;;;20.40;99.90;;;;;;5057730;28;20053;-88
2023/08/18 09:43:38;;;;;;;11.60;3.90;;;20.50;99.90;;;;;;5048334;28;20576;-88
2023/08/18 09:46:05;;;;;;;9.32;3.88;;;20.60;99.90;;;;;;5049813;28;20045;-89
2023/08/18 09:48:37;;;;;;;9.48;3.97;;;20.80;99.90;;;;;;5035764;28;20098;-87
2023/08/18 09:51:06;;;;;;;7.30;3.97;;;20.90;99.90;;;;;;5023492;28;20040;-88
2023/08/18 09:53:32;;;;;;;9.57;4.38;;;21.00;99.90;;;;;;5027350;28;20041;-89
2023/08/18 09:56:13;;;;;;;10.70;4.55;;;21.10;99.90;;;;;;5058883;28;20047;-88
2023/08/18 09:59:05;;;;;;;11.02;4.75;;;21.10;99.90;;;;;;5029634;28;20076;-88
2023/08/18 10:01:33;;;;;;;7.90;4.35;;;21.20;99.90;;;;;;5061516;28;20063;-88
2023/08/18 10:03:59;;;;;;;10.18;4.47;;;21.20;99.90;;;;;;5027205;28;20446;-89
2023/08/18 10:06:25;;;;;;;14.77;4.55;;;21.20;99.90;;;;;;5040367;28;20049;-87
2023/08/18 10:08:53;;;;;;;10.00;4.47;;;21.30;99.90;;;;;;5046992;28;20045;-86
2023/08/18 10:11:19;;;;;;;9.15;4.40;;;21.30;99.90;;;;;;5030205;28;20041;-88
2023/08/18 10:13:47;;;;;;;7.90;3.75;;;21.40;99.90;;;;;;5023640;28;20068;-88
2023/08/18 10:16:14;;;;;;;11.13;5.10;;;21.60;99.90;;;;;;5026301;28;20107;-87
2023/08/18 10:18:39;;;;;;;10.10;5.30;;;21.60;99.90;;;;;;5021139;28;20041;-88
2023/08/18 10:21:05;;;;;;;13.63;5.20;;;21.70;99.90;;;;;;5028886;28;20096;-88
2023/08/18 10:23:31;;;;;;;13.88;5.20;;;21.70;99.90;;;;;;5028852;28;20487;-86
2023/08/18 10:25:58;;;;;;;12.82;5.90;;;21.80;99.90;;;;;;5042692;28;20041;-88
2023/08/18 10:28:28;;;;;;;13.10;5.30;;;21.80;99.90;;;;;;5026127;28;20488;-87
2023/08/18 10:31:05;;;;;;;14.55;5.53;;;21.80;99.90;;;;;;5049056;28;20037;-86
2023/08/18 10:33:39;;;;;;;8.23;4.85;;;21.80;99.90;;;;;;5028022;28;20150;-86
2023/08/18 10:36:06;;;;;;;9.93;4.90;;;21.80;99.90;;;;;;5065985;28;20042;-86
2023/08/18 10:38:36;;;;;;;9.27;3.95;;;21.80;99.90;;;;;;5030712;28;20580;-87
2023/08/18 10:41:03;;;;;;;8.10;4.50;;;21.80;99.90;;;;;;5047300;28;20045;-87
2023/08/18 10:43:29;;;;;;;7.88;4.68;;;21.80;99.90;;;;;;5084486;28;20037;-89
2023/08/18 10:45:59;;;;;;;10.82;4.32;;;21.80;99.90;;;;;;5051672;28;20124;-92
2023/08/18 10:48:32;;;;;;;9.43;4.10;;;21.90;99.90;;;;;;5047244;28;20049;-89
2023/08/18 10:50:59;;;;;;;9.88;3.85;;;22.00;99.90;;;;;;5051620;28;20049;-88
2023/08/18 10:53:25;;;;;;;11.93;4.43;;;22.10;99.90;;;;;;5018462;28;20064;-88
2023/08/18 10:55:56;;;;;;;9.35;4.97;;;22.20;99.90;;;;;;5041501;28;20228;-89
2023/08/18 10:58:22;;;;;;;12.05;4.10;;;22.30;99.90;;;;;;5065545;28;20075;-89
2023/08/18 11:00:49;;;;;;;10.80;4.30;;;22.40;99.90;;;;;;5026050;28;20045;-87
2023/08/18 11:03:15;;;;;;;9.48;5.07;;;22.50;99.90;;;;;;5034025;28;20678;-87
2023/08/18 11:05:41;;;;;;;8.07;4.43;;;22.50;99.90;;;;;;5030246;28;20067;-87
2023/08/18 11:08:09;;;;;;;14.57;4.75;;;22.70;99.90;;;;;;5050541;28;20116;-87
2023/08/18 11:10:38;;;;;;;7.72;4.63;;;22.90;99.90;;;;;;5047750;28;20485;-86
2023/08/18 11:13:05;;;;;;;10.27;4.80;;;23.00;99.90;;;;;;5030899;28;20052;-87
2023/08/18 11:15:30;;;;;;;8.93;4.70;;;23.10;99.90;;;;;;5032830;28;20358;-86
2023/08/18 11:17:56;;;;;;;7.10;4.63;;;23.10;99.90;;;;;;5043984;28;20052;-86
2023/08/18 11:20:22;;;;;;;7.18;4.22;;;23.10;99.90;;;;;;5058984;28;20049;-87
2023/08/18 11:22:51;;;;;;;6.35;4.00;;;23.10;99.90;;;;;;5066213;28;20087;-86
2023/08/18 11:25:18;;;;;;;8.32;4.07;;;23.20;99.90;;;;;;5047439;28;20043;-87
2023/08/18 11:27:45;;;;;;;7.78;4.32;;;23.30;99.90;;;;;;5083747;28;20049;-89
2023/08/18 11:30:22;;;;;;;6.07;4.45;;;23.40;99.90;;;;;;5035457;28;20028;-96
2023/08/18 11:32:47;;;;;;;8.63;4.72;;;23.40;99.90;;;;;;5033296;28;20056;-90
2023/08/18 11:35:15;;;;;;;8.65;4.43;;;23.50;99.90;;;;;;5051518;28;20094;-90
2023/08/18 11:37:42;;;;;;;7.70;5.05;;;23.60;99.90;;;;;;5047525;28;20077;-90
2023/08/18 11:40:12;;;;;;;9.70;4.82;;;23.60;99.90;;;;;;5044454;28;20099;-89
2023/08/18 11:42:43;;;;;;;8.25;4.30;;;23.70;99.90;;;;;;5033672;28;20044;-91
2023/08/18 11:45:16;;;;;;;10.82;4.88;;;23.80;99.90;;;;;;5058812;28;20033;-90
2023/08/18 11:48:06;;;;;;;12.30;4.70;;;23.90;99.90;;;;;;5049967;28;20077;-90
2023/08/18 11:50:39;;;;;;;9.45;4.75;;;24.00;99.90;;;;;;5020947;28;20033;-90
2023/08/18 11:53:07;;;;;;;14.07;5.40;;;24.10;99.90;;;;;;5031222;28;20057;-91
2023/08/18 11:55:40;;;;;;;9.68;5.13;;;24.10;99.90;;;;;;5050045;28;20041;-90
2023/08/18 11:58:14;;;;;;;7.47;4.60;;;24.00;99.90;;;;;;5051031;28;20063;-91
2023/08/18 12:00:42;;;;;;;8.00;4.57;;;24.00;99.90;;;;;;5038754;28;20049;-90
2023/08/18 12:03:25;;;;;;;8.10;5.00;;;24.00;99.90;;;;;;5032096;28;20087;-91
2023/08/18 12:05:51;;;;;;;;;;;24.00;99.90;;;;;;5067484;28;20139;-90
2023/08/18 12:08:17;;;;;;;9.15;4.85;;;24.10;99.90;;;;;;5064911;28;19920;-91
2023/08/18 12:10:44;;;;;;;9.35;4.90;;;24.20;99.90;;;;;;5055915;28;20068;-91
2023/08/18 12:13:10;;;;;;;10.02;5.40;;;24.20;99.90;;;;;;5044153;28;20048;-90
2023/08/18 12:15:36;;;;;;;11.38;5.22;;;24.40;99.90;;;;;;5059332;28;20121;-91
2023/08/18 12:18:02;;;;;;;10.43;5.40;;;24.40;99.90;;;;;;5032800;28;20060;-91
2023/08/18 12:20:27;;;;;;;12.20;5.82;;;24.40;99.90;;;;;;5050850;28;20365;-90
2023/08/18 12:22:53;;;;;;;11.15;5.57;;;24.40;99.90;;;;;;5050407;28;20029;-90
2023/08/18 12:25:21;;;;;;;10.55;5.68;;;24.40;99.90;;;;;;5050368;28;20053;-90
2023/08/18 12:27:48;;;;;;;8.57;5.15;;;24.30;99.90;;;;;;5044566;28;20049;-90
2023/08/18 12:30:16;;;;;;;10.45;5.90;;;24.30;99.90;;;;;;5031606;28;20095;-90
2023/08/18 12:32:43;;;;;;;12.73;6.70;;;24.30;99.90;;;;;;5064144;28;20484;-90
2023/08/18 12:35:09;;;;;;;11.13;6.95;;;24.40;99.90;;;;;;5050565;28;20488;-91
2023/08/18 12:37:36;;;;;;;8.27;6.18;;;24.70;99.90;;;;;;5082279;28;20052;-90
2023/08/18 12:40:05;;;;;;;8.25;5.45;;;24.90;99.90;;;;;;5033470;28;20135;-91
2023/08/18 12:42:32;;;;;;;9.43;5.93;;;25.10;99.90;;;;;;5016274;28;20042;-91